createdAt,value
2023-05-17T00:05:00.613Z,5.54
2023-05-17T00:10:02.332Z,5.21
2023-05-17T00:15:06.464Z,5.64
2023-05-17T00:20:08.780Z,5.40
2023-05-17T00:25:10.419Z,5.29
2023-05-17T00:30:13.898Z,5.34
2023-05-17T00:35:15.650Z,5.32
2023-05-17T00:40:17.298Z,5.35
2023-05-17T00:45:20.326Z,5.06
2023-05-17T00:50:22.040Z,5.03
2023-05-17T00:55:23.796Z,5.19
2023-05-17T01:00:26.978Z,5.01
2023-05-17T01:05:29.253Z,5.00
2023-05-17T01:10:40.127Z,4.94
2023-05-17T01:15:49.690Z,4.83
2023-05-17T01:20:52.804Z,4.81
2023-05-17T01:26:01.394Z,4.81
2023-05-17T01:31:05.547Z,4.84
2023-05-17T01:36:08.134Z,4.87
2023-05-17T01:41:16.488Z,4.74
2023-05-17T01:46:26.679Z,4.78
2023-05-17T01:51:33.464Z,4.87
2023-05-17T01:56:40.979Z,4.69
2023-05-17T02:01:44.746Z,4.79
2023-05-17T02:06:46.409Z,4.59
2023-05-17T02:11:48.023Z,4.52
2023-05-17T02:16:51.018Z,4.51
2023-05-17T02:21:52.668Z,4.45
2023-05-17T02:26:54.255Z,4.51
2023-05-17T02:31:57.286Z,4.46
2023-05-17T02:36:58.826Z,4.40
2023-05-17T02:42:00.629Z,4.47
2023-05-17T02:47:03.942Z,4.31
2023-05-17T02:52:06.026Z,4.54
2023-05-17T02:57:07.668Z,4.33
2023-05-17T03:02:10.723Z,4.30
2023-05-17T03:07:12.452Z,4.30
2023-05-17T03:12:14.004Z,4.23
2023-05-17T03:17:16.926Z,4.31
2023-05-17T03:22:18.578Z,4.17
2023-05-17T03:27:20.268Z,4.12
2023-05-17T03:32:23.237Z,4.22
2023-05-17T03:37:25.175Z,4.03
2023-05-17T03:42:26.757Z,4.07
2023-05-17T03:47:29.787Z,3.96
2023-05-17T03:52:31.388Z,4.08
2023-05-17T03:57:33.094Z,3.97
2023-05-17T04:02:36.191Z,3.96
2023-05-17T04:07:37.826Z,4.02
2023-05-17T04:12:39.425Z,4.04
2023-05-17T04:17:42.373Z,4.06
2023-05-17T04:22:44.025Z,4.08
2023-05-17T04:27:45.739Z,4.11
2023-05-17T04:32:49.102Z,4.13
2023-05-17T04:37:50.832Z,4.11
2023-05-17T04:42:52.500Z,4.19
2023-05-17T04:47:55.568Z,4.22
2023-05-17T04:52:57.204Z,4.26
2023-05-17T04:57:58.861Z,4.33
2023-05-17T05:03:01.935Z,4.37
2023-05-17T05:08:03.805Z,4.48
2023-05-17T05:13:05.429Z,4.70
2023-05-17T05:18:08.640Z,4.73
2023-05-17T05:23:10.371Z,4.69
2023-05-17T05:28:11.974Z,4.61
2023-05-17T05:33:15.000Z,5.08
2023-05-17T05:38:16.622Z,5.04
2023-05-17T05:43:20.330Z,5.49
2023-05-17T05:48:23.398Z,5.76
2023-05-17T05:53:25.049Z,5.88
2023-05-17T05:58:26.852Z,5.88
2023-05-17T06:03:29.809Z,5.83
2023-05-17T06:08:31.588Z,6.22
2023-05-17T06:13:33.246Z,6.07
2023-05-17T06:18:36.206Z,6.61
2023-05-17T06:23:37.926Z,6.23
2023-05-17T06:28:39.677Z,6.70
2023-05-17T06:33:42.615Z,6.87
2023-05-17T06:38:44.236Z,6.99
2023-05-17T06:43:47.949Z,6.85
2023-05-17T06:48:51.458Z,6.70
2023-05-17T06:53:53.418Z,6.77
2023-05-17T06:58:55.073Z,6.55
2023-05-17T07:03:58.032Z,7.16
2023-05-17T07:08:59.756Z,7.10
2023-05-17T07:14:01.427Z,6.88
2023-05-17T07:19:04.499Z,6.90
2023-05-17T07:24:06.537Z,7.34
2023-05-17T07:29:08.183Z,6.85
2023-05-17T07:34:11.170Z,6.96
2023-05-17T07:39:12.823Z,6.91
2023-05-17T07:44:14.760Z,6.95
2023-05-17T07:49:17.968Z,7.45
2023-05-17T07:54:23.417Z,7.68
2023-05-17T07:59:25.979Z,7.91
2023-05-17T08:04:29.013Z,7.27
2023-05-17T08:09:30.701Z,7.59
2023-05-17T08:14:32.367Z,8.32
2023-05-17T08:19:35.399Z,8.29
2023-05-17T08:24:36.985Z,7.64
2023-05-17T08:29:39.634Z,8.52
2023-05-17T08:34:43.050Z,8.68
2023-05-17T08:39:44.662Z,8.12
2023-05-17T08:44:46.494Z,7.95
2023-05-17T08:49:49.482Z,8.11
2023-05-17T08:54:51.435Z,7.59
2023-05-17T08:59:53.940Z,7.83
2023-05-17T09:04:57.394Z,8.14
2023-05-17T09:09:59.058Z,7.62
2023-05-17T09:15:14.672Z,7.57
2023-05-17T09:20:22.892Z,7.64
2023-05-17T09:25:24.770Z,8.15
2023-05-17T09:30:30.312Z,8.18
2023-05-17T09:35:34.300Z,8.01
2023-05-17T09:40:38.732Z,8.83
2023-05-17T09:45:40.392Z,9.13
2023-05-17T09:50:49.145Z,8.48
2023-05-17T09:55:52.834Z,9.94
2023-05-17T10:01:01.898Z,9.46
2023-05-17T10:06:07.216Z,10.59
2023-05-17T10:11:10.068Z,10.40
2023-05-17T10:16:12.972Z,11.70
2023-05-17T10:21:16.788Z,12.33
2023-05-17T10:26:20.204Z,10.67
2023-05-17T10:31:23.982Z,9.42
2023-05-17T10:36:27.061Z,10.49
2023-05-17T10:41:32.156Z,10.86
2023-05-17T10:46:34.566Z,10.96
2023-05-17T10:51:37.887Z,11.27
2023-05-17T10:56:41.779Z,9.81
2023-05-17T11:02:00.561Z,10.14
2023-05-17T11:07:25.036Z,11.07
2023-05-17T11:12:33.927Z,11.46
2023-05-17T11:17:47.263Z,12.13
2023-05-17T11:22:56.363Z,11.64
2023-05-17T11:27:58.963Z,10.59
2023-05-17T11:33:02.377Z,12.06
2023-05-17T11:38:16.511Z,11.70
2023-05-17T11:43:19.365Z,11.25
2023-05-17T11:48:22.598Z,10.09
2023-05-17T11:53:26.365Z,10.04
2023-05-17T11:58:27.941Z,10.38
2023-05-17T12:03:30.954Z,11.37
2023-05-17T12:08:34.801Z,11.66
2023-05-17T12:13:36.481Z,12.04
2023-05-17T12:18:39.545Z,11.16
2023-05-17T12:23:44.158Z,10.19
2023-05-17T12:28:53.379Z,10.99
2023-05-17T12:33:55.808Z,11.05
2023-05-17T12:38:59.187Z,11.05
2023-05-17T12:44:13.953Z,11.76
2023-05-17T12:49:17.493Z,10.54
2023-05-17T12:54:28.694Z,10.58
2023-05-17T12:59:30.390Z,11.50
2023-05-17T13:04:34.584Z,10.96
2023-05-17T13:09:46.069Z,10.67
2023-05-17T13:14:49.024Z,10.94
2023-05-17T13:19:51.038Z,10.71
2023-05-17T13:24:54.445Z,10.57
2023-05-17T13:29:56.160Z,11.31
2023-05-17T13:34:57.772Z,11.02
2023-05-17T13:40:00.732Z,10.37
2023-05-17T13:45:02.475Z,10.14
2023-05-17T13:50:04.475Z,10.42
2023-05-17T13:55:08.615Z,11.02
2023-05-17T14:00:11.328Z,10.76
2023-05-17T14:05:13.026Z,10.48
2023-05-17T14:10:15.976Z,10.49
2023-05-17T14:15:17.550Z,10.49
2023-05-17T14:20:19.388Z,10.92
2023-05-17T14:25:22.963Z,10.65
2023-05-17T14:30:24.911Z,9.81
2023-05-17T14:35:26.537Z,9.77
2023-05-17T14:40:29.659Z,9.89
2023-05-17T14:45:31.472Z,10.42
2023-05-17T14:50:33.413Z,11.14
2023-05-17T14:55:36.847Z,10.64
2023-05-17T15:00:38.442Z,9.61
2023-05-17T15:05:40.032Z,9.37
2023-05-17T15:10:42.980Z,10.34
2023-05-17T15:15:44.777Z,10.45
2023-05-17T15:20:46.373Z,10.39
2023-05-17T15:25:49.296Z,10.06
2023-05-17T15:31:00.095Z,9.72
2023-05-17T15:36:01.729Z,9.62
2023-05-17T15:41:07.006Z,9.49
2023-05-17T15:46:08.955Z,10.07
2023-05-17T15:51:10.578Z,9.69
2023-05-17T15:56:13.487Z,9.36
2023-05-17T16:01:15.240Z,9.24
2023-05-17T16:06:16.969Z,8.91
2023-05-17T16:11:21.289Z,8.91
2023-05-17T16:16:22.860Z,8.64
2023-05-17T16:21:24.515Z,8.79
2023-05-17T16:26:27.535Z,8.61
2023-05-17T16:31:29.243Z,8.37
2023-05-17T16:36:30.803Z,8.40
2023-05-17T16:41:33.783Z,8.22
2023-05-17T16:46:36.888Z,8.21
2023-05-17T16:51:38.563Z,8.33
2023-05-17T16:56:41.574Z,8.47
2023-05-17T17:01:43.255Z,8.55
2023-05-17T17:06:45.105Z,8.62
2023-05-17T17:11:48.146Z,8.47
2023-05-17T17:16:49.698Z,8.18
2023-05-17T17:21:51.254Z,8.18
2023-05-17T17:26:54.277Z,8.16
2023-05-17T17:31:56.006Z,7.86
2023-05-17T17:36:57.762Z,7.85
2023-05-17T17:42:01.681Z,7.88
2023-05-17T17:47:03.497Z,8.13
2023-05-17T17:52:05.592Z,7.85
2023-05-17T17:57:08.652Z,7.64
2023-05-17T18:02:10.276Z,7.34
2023-05-17T18:07:11.835Z,7.40
2023-05-17T18:12:15.794Z,7.29
2023-05-17T18:17:17.396Z,7.09
2023-05-17T18:22:19.009Z,7.00
2023-05-17T18:27:22.016Z,6.98
2023-05-17T18:32:23.729Z,6.94
2023-05-17T18:37:25.472Z,6.65
2023-05-17T18:42:28.738Z,6.52
2023-05-17T18:47:30.492Z,6.49
2023-05-17T18:52:32.617Z,6.41
2023-05-17T18:57:35.545Z,6.31
2023-05-17T19:02:37.249Z,6.14
2023-05-17T19:07:38.885Z,6.28
2023-05-17T19:12:43.438Z,5.96
2023-05-17T19:17:46.558Z,6.01
2023-05-17T19:22:48.190Z,5.98
2023-05-17T19:27:51.199Z,6.03
2023-05-17T19:32:52.885Z,5.98
2023-05-17T19:37:54.478Z,5.68
2023-05-17T19:42:57.454Z,5.55
2023-05-17T19:47:59.263Z,5.53
2023-05-17T19:53:01.022Z,5.46
2023-05-17T19:58:03.930Z,5.24
2023-05-17T20:03:05.790Z,5.25
2023-05-17T20:08:07.474Z,5.17
2023-05-17T20:13:11.083Z,5.32
2023-05-17T20:18:12.648Z,5.36
2023-05-17T20:23:14.515Z,5.18
2023-05-17T20:28:17.528Z,5.09
2023-05-17T20:33:19.227Z,5.18
2023-05-17T20:38:21.825Z,5.08
2023-05-17T20:43:24.832Z,5.21
2023-05-17T20:48:26.477Z,5.36
2023-05-17T20:53:28.805Z,5.15
2023-05-17T20:58:32.000Z,5.07
2023-05-17T21:03:33.948Z,5.16
2023-05-17T21:08:35.811Z,4.89
2023-05-17T21:13:38.889Z,4.94
2023-05-17T21:18:40.527Z,4.80
2023-05-17T21:23:42.157Z,4.99
2023-05-17T21:28:45.076Z,4.76
2023-05-17T21:33:46.642Z,4.69
2023-05-17T21:38:48.467Z,4.80
2023-05-17T21:43:51.437Z,4.79
2023-05-17T21:48:53.114Z,4.78
2023-05-17T21:53:54.726Z,4.76
2023-05-17T21:58:57.648Z,4.77
2023-05-17T22:03:59.372Z,4.72
2023-05-17T22:09:01.336Z,4.72
2023-05-17T22:14:04.551Z,4.60
2023-05-17T22:19:06.231Z,4.72
2023-05-17T22:24:08.120Z,4.71
2023-05-17T22:29:11.039Z,4.62
2023-05-17T22:34:12.599Z,4.64
2023-05-17T22:39:14.167Z,4.69
2023-05-17T22:44:17.160Z,4.72
2023-05-17T22:49:18.792Z,4.56
2023-05-17T22:54:20.480Z,4.59
2023-05-17T22:59:23.554Z,4.54
2023-05-17T23:04:25.351Z,4.66
2023-05-17T23:09:27.180Z,4.88
2023-05-17T23:14:30.113Z,4.70
2023-05-17T23:19:32.677Z,4.75
2023-05-17T23:24:34.309Z,4.63
2023-05-17T23:29:37.207Z,4.49
2023-05-17T23:34:38.867Z,4.27
2023-05-17T23:39:40.492Z,4.32
2023-05-17T23:44:43.425Z,4.32
2023-05-17T23:49:45.087Z,4.41
2023-05-17T23:54:47.304Z,4.21
2023-05-17T23:59:50.238Z,4.34
